Terminal Aerodrome Forecast
Issued by NWS Wilmington, OH

Home | Current Version | Previous Version | Text Only | Print | Product List | Glossary On
Versions: 1 2 3 4 5 6 7 8 9 10 11 12 13 14 15 16 17 18 19 20
569
FTUS41 KILN 290311 AAD
TAFILN
TAF AMD
KILN 290311Z 2903/2924 08014G20KT P6SM -TSRA FEW029CB SCT080 OVC100
      TEMPO 2903/2905 5SM -TSRA OVC025CB
     FM290500 20006KT 5SM -SHRA VCTS OVC015CB
      TEMPO 2905/2909 2SM TSRA
     FM290900 20008KT 5SM -SHRA VCTS OVC015CB
     FM291300 20012G17KT P6SM -SHRA BKN015
     FM291600 23011KT P6SM VCSH OVC025=

USA.gov is the U.S. government's official web portal to all federal, state and local government web resources and services.